sensor_id;sensor_type;location;lat;lon;timestamp;P1;durP1;ratioP1;P2;durP2;ratioP2
39968;SDS011;25648;47.808;19.004;2022-11-25T00:00:48;38.72;;;20.80;;
39968;SDS011;25648;47.808;19.004;2022-11-25T00:03:14;44.63;;;22.80;;
39968;SDS011;25648;47.808;19.004;2022-11-25T00:05:40;45.78;;;22.67;;
39968;SDS011;25648;47.808;19.004;2022-11-25T00:08:06;38.42;;;20.67;;
39968;SDS011;25648;47.808;19.004;2022-11-25T00:10:32;43.65;;;22.08;;
39968;SDS011;25648;47.808;19.004;2022-11-25T00:12:57;40.47;;;21.63;;
39968;SDS011;25648;47.808;19.004;2022-11-25T00:15:23;45.17;;;22.73;;
39968;SDS011;25648;47.808;19.004;2022-11-25T00:17:49;44.10;;;22.45;;
39968;SDS011;25648;47.808;19.004;2022-11-25T00:20:15;43.72;;;22.35;;
39968;SDS011;25648;47.808;19.004;2022-11-25T00:22:43;45.75;;;23.08;;
39968;SDS011;25648;47.808;19.004;2022-11-25T00:25:11;42.55;;;22.10;;
39968;SDS011;25648;47.808;19.004;2022-11-25T00:27:37;43.63;;;22.25;;
39968;SDS011;25648;47.808;19.004;2022-11-25T00:30:02;40.25;;;21.65;;
39968;SDS011;25648;47.808;19.004;2022-11-25T00:32:29;40.03;;;21.00;;
39968;SDS011;25648;47.808;19.004;2022-11-25T00:34:54;37.20;;;20.90;;
39968;SDS011;25648;47.808;19.004;2022-11-25T00:37:20;43.85;;;21.60;;
39968;SDS011;25648;47.808;19.004;2022-11-25T00:39:46;39.85;;;21.13;;
39968;SDS011;25648;47.808;19.004;2022-11-25T00:42:12;39.65;;;21.55;;
39968;SDS011;25648;47.808;19.004;2022-11-25T00:44:56;42.53;;;21.02;;
39968;SDS011;25648;47.808;19.004;2022-11-25T00:47:21;45.78;;;23.42;;
39968;SDS011;25648;47.808;19.004;2022-11-25T00:49:48;36.80;;;20.92;;
39968;SDS011;25648;47.808;19.004;2022-11-25T00:52:16;42.13;;;22.33;;
39968;SDS011;25648;47.808;19.004;2022-11-25T00:54:43;41.42;;;22.10;;
39968;SDS011;25648;47.808;19.004;2022-11-25T00:57:11;37.67;;;21.88;;
39968;SDS011;25648;47.808;19.004;2022-11-25T00:59:38;42.88;;;22.05;;
39968;SDS011;25648;47.808;19.004;2022-11-25T01:02:04;40.72;;;22.17;;
39968;SDS011;25648;47.808;19.004;2022-11-25T01:04:29;42.00;;;21.83;;
39968;SDS011;25648;47.808;19.004;2022-11-25T01:06:55;36.88;;;21.05;;
39968;SDS011;25648;47.808;19.004;2022-11-25T01:09:23;44.45;;;22.83;;
39968;SDS011;25648;47.808;19.004;2022-11-25T01:11:49;43.22;;;22.77;;
39968;SDS011;25648;47.808;19.004;2022-11-25T01:14:16;42.42;;;22.10;;
39968;SDS011;25648;47.808;19.004;2022-11-25T01:16:42;42.80;;;21.52;;
39968;SDS011;25648;47.808;19.004;2022-11-25T01:19:09;44.63;;;22.27;;
39968;SDS011;25648;47.808;19.004;2022-11-25T01:21:35;43.38;;;21.67;;
39968;SDS011;25648;47.808;19.004;2022-11-25T01:24:02;39.60;;;22.25;;
39968;SDS011;25648;47.808;19.004;2022-11-25T01:26:31;39.33;;;21.75;;
39968;SDS011;25648;47.808;19.004;2022-11-25T01:28:59;38.55;;;21.80;;
39968;SDS011;25648;47.808;19.004;2022-11-25T01:31:30;39.30;;;20.63;;
39968;SDS011;25648;47.808;19.004;2022-11-25T01:34:00;43.03;;;21.05;;
39968;SDS011;25648;47.808;19.004;2022-11-25T01:36:31;41.55;;;21.25;;
39968;SDS011;25648;47.808;19.004;2022-11-25T01:38:57;41.60;;;21.83;;
39968;SDS011;25648;47.808;19.004;2022-11-25T01:41:25;40.88;;;21.20;;
39968;SDS011;25648;47.808;19.004;2022-11-25T01:46:46;41.50;;;21.23;;
39968;SDS011;25648;47.808;19.004;2022-11-25T01:49:49;39.80;;;21.63;;
39968;SDS011;25648;47.808;19.004;2022-11-25T01:52:25;41.30;;;22.45;;
39968;SDS011;25648;47.808;19.004;2022-11-25T01:55:11;37.78;;;20.58;;
39968;SDS011;25648;47.808;19.004;2022-11-25T01:57:42;42.03;;;20.92;;
39968;SDS011;25648;47.808;19.004;2022-11-25T02:00:08;42.05;;;22.23;;
39968;SDS011;25648;47.808;19.004;2022-11-25T02:02:35;40.38;;;21.50;;
39968;SDS011;25648;47.808;19.004;2022-11-25T02:05:01;39.20;;;22.27;;
39968;SDS011;25648;47.808;19.004;2022-11-25T02:07:41;40.72;;;22.05;;
39968;SDS011;25648;47.808;19.004;2022-11-25T02:10:11;42.15;;;22.50;;
39968;SDS011;25648;47.808;19.004;2022-11-25T02:12:39;41.28;;;21.23;;
39968;SDS011;25648;47.808;19.004;2022-11-25T02:15:07;40.00;;;21.70;;
39968;SDS011;25648;47.808;19.004;2022-11-25T02:17:33;41.58;;;21.77;;
39968;SDS011;25648;47.808;19.004;2022-11-25T02:20:18;45.90;;;22.08;;
39968;SDS011;25648;47.808;19.004;2022-11-25T02:25:24;44.65;;;22.60;;
39968;SDS011;25648;47.808;19.004;2022-11-25T02:30:59;42.97;;;22.10;;
39968;SDS011;25648;47.808;19.004;2022-11-25T02:33:25;42.58;;;21.35;;
39968;SDS011;25648;47.808;19.004;2022-11-25T02:38:29;44.58;;;23.40;;
39968;SDS011;25648;47.808;19.004;2022-11-25T02:41:11;42.30;;;21.20;;
39968;SDS011;25648;47.808;19.004;2022-11-25T02:43:45;39.10;;;21.63;;
39968;SDS011;25648;47.808;19.004;2022-11-25T02:46:13;41.25;;;22.02;;
39968;SDS011;25648;47.808;19.004;2022-11-25T02:48:40;37.55;;;20.80;;
39968;SDS011;25648;47.808;19.004;2022-11-25T02:51:07;37.30;;;20.73;;
39968;SDS011;25648;47.808;19.004;2022-11-25T02:53:35;39.55;;;20.75;;
39968;SDS011;25648;47.808;19.004;2022-11-25T02:56:01;38.13;;;20.60;;
39968;SDS011;25648;47.808;19.004;2022-11-25T02:58:27;38.67;;;21.15;;
39968;SDS011;25648;47.808;19.004;2022-11-25T03:00:53;35.30;;;18.98;;
39968;SDS011;25648;47.808;19.004;2022-11-25T03:03:19;40.60;;;20.75;;
39968;SDS011;25648;47.808;19.004;2022-11-25T03:05:44;37.60;;;20.20;;
39968;SDS011;25648;47.808;19.004;2022-11-25T03:08:10;39.50;;;20.98;;
39968;SDS011;25648;47.808;19.004;2022-11-25T03:10:36;38.88;;;20.35;;
39968;SDS011;25648;47.808;19.004;2022-11-25T03:13:03;36.70;;;20.13;;
39968;SDS011;25648;47.808;19.004;2022-11-25T03:15:30;39.75;;;20.10;;
39968;SDS011;25648;47.808;19.004;2022-11-25T03:17:55;37.10;;;18.95;;
39968;SDS011;25648;47.808;19.004;2022-11-25T03:20:21;37.42;;;19.60;;
39968;SDS011;25648;47.808;19.004;2022-11-25T03:22:47;40.35;;;20.58;;
39968;SDS011;25648;47.808;19.004;2022-11-25T03:25:14;34.80;;;19.45;;
39968;SDS011;25648;47.808;19.004;2022-11-25T03:27:40;40.50;;;20.83;;
39968;SDS011;25648;47.808;19.004;2022-11-25T03:30:07;39.90;;;20.38;;
39968;SDS011;25648;47.808;19.004;2022-11-25T03:32:35;35.90;;;20.52;;
39968;SDS011;25648;47.808;19.004;2022-11-25T03:35:01;36.70;;;20.48;;
39968;SDS011;25648;47.808;19.004;2022-11-25T03:37:26;35.08;;;19.55;;
39968;SDS011;25648;47.808;19.004;2022-11-25T03:39:52;36.63;;;19.50;;
39968;SDS011;25648;47.808;19.004;2022-11-25T03:42:18;39.65;;;20.73;;
39968;SDS011;25648;47.808;19.004;2022-11-25T03:44:43;37.58;;;20.48;;
39968;SDS011;25648;47.808;19.004;2022-11-25T03:47:09;34.30;;;19.58;;
39968;SDS011;25648;47.808;19.004;2022-11-25T03:49:35;41.97;;;20.23;;
39968;SDS011;25648;47.808;19.004;2022-11-25T03:52:00;35.45;;;19.67;;
39968;SDS011;25648;47.808;19.004;2022-11-25T03:54:26;38.92;;;20.30;;
39968;SDS011;25648;47.808;19.004;2022-11-25T03:56:53;37.47;;;19.25;;
39968;SDS011;25648;47.808;19.004;2022-11-25T03:59:18;37.92;;;18.77;;
39968;SDS011;25648;47.808;19.004;2022-11-25T04:01:44;34.90;;;19.17;;
39968;SDS011;25648;47.808;19.004;2022-11-25T04:04:10;36.38;;;19.65;;
39968;SDS011;25648;47.808;19.004;2022-11-25T04:06:36;35.67;;;19.50;;
39968;SDS011;25648;47.808;19.004;2022-11-25T04:09:03;36.53;;;18.65;;
39968;SDS011;25648;47.808;19.004;2022-11-25T04:11:30;37.08;;;20.75;;
39968;SDS011;25648;47.808;19.004;2022-11-25T04:14:15;39.88;;;19.33;;
39968;SDS011;25648;47.808;19.004;2022-11-25T04:16:41;39.22;;;19.90;;
39968;SDS011;25648;47.808;19.004;2022-11-25T04:19:07;41.00;;;21.40;;
39968;SDS011;25648;47.808;19.004;2022-11-25T04:21:32;42.50;;;21.48;;
39968;SDS011;25648;47.808;19.004;2022-11-25T04:23:58;39.65;;;20.02;;
39968;SDS011;25648;47.808;19.004;2022-11-25T04:26:24;43.15;;;20.30;;
39968;SDS011;25648;47.808;19.004;2022-11-25T04:28:49;39.33;;;20.45;;
39968;SDS011;25648;47.808;19.004;2022-11-25T04:31:15;41.17;;;20.50;;
39968;SDS011;25648;47.808;19.004;2022-11-25T04:33:41;34.47;;;17.77;;
39968;SDS011;25648;47.808;19.004;2022-11-25T04:36:07;34.25;;;18.27;;
39968;SDS011;25648;47.808;19.004;2022-11-25T04:38:33;36.38;;;18.63;;
39968;SDS011;25648;47.808;19.004;2022-11-25T04:40:58;34.42;;;18.65;;
39968;SDS011;25648;47.808;19.004;2022-11-25T04:43:24;34.22;;;18.30;;
39968;SDS011;25648;47.808;19.004;2022-11-25T04:45:50;37.55;;;19.20;;
39968;SDS011;25648;47.808;19.004;2022-11-25T04:48:17;37.83;;;19.52;;
39968;SDS011;25648;47.808;19.004;2022-11-25T04:50:43;36.10;;;19.73;;
39968;SDS011;25648;47.808;19.004;2022-11-25T04:53:09;42.20;;;21.52;;
39968;SDS011;25648;47.808;19.004;2022-11-25T04:55:35;43.25;;;20.25;;
39968;SDS011;25648;47.808;19.004;2022-11-25T04:58:00;40.42;;;21.13;;
39968;SDS011;25648;47.808;19.004;2022-11-25T05:00:26;41.97;;;19.45;;
39968;SDS011;25648;47.808;19.004;2022-11-25T05:02:52;38.63;;;19.42;;
39968;SDS011;25648;47.808;19.004;2022-11-25T05:05:17;40.40;;;19.08;;
39968;SDS011;25648;47.808;19.004;2022-11-25T05:07:43;35.67;;;18.85;;
39968;SDS011;25648;47.808;19.004;2022-11-25T05:10:09;52.88;;;28.63;;
39968;SDS011;25648;47.808;19.004;2022-11-25T05:12:34;45.78;;;24.50;;
39968;SDS011;25648;47.808;19.004;2022-11-25T05:15:00;36.92;;;19.00;;
39968;SDS011;25648;47.808;19.004;2022-11-25T05:17:27;40.08;;;21.50;;
39968;SDS011;25648;47.808;19.004;2022-11-25T05:19:54;43.90;;;22.38;;
39968;SDS011;25648;47.808;19.004;2022-11-25T05:22:21;40.50;;;21.48;;
39968;SDS011;25648;47.808;19.004;2022-11-25T05:24:49;42.97;;;23.77;;
39968;SDS011;25648;47.808;19.004;2022-11-25T05:27:15;44.05;;;23.45;;
39968;SDS011;25648;47.808;19.004;2022-11-25T05:29:41;37.65;;;20.30;;
39968;SDS011;25648;47.808;19.004;2022-11-25T05:32:07;38.80;;;20.02;;
39968;SDS011;25648;47.808;19.004;2022-11-25T05:34:33;38.58;;;20.08;;
39968;SDS011;25648;47.808;19.004;2022-11-25T05:36:59;41.60;;;20.40;;
39968;SDS011;25648;47.808;19.004;2022-11-25T05:39:25;39.65;;;20.20;;
39968;SDS011;25648;47.808;19.004;2022-11-25T05:41:50;39.83;;;20.17;;
39968;SDS011;25648;47.808;19.004;2022-11-25T05:44:16;39.10;;;20.55;;
39968;SDS011;25648;47.808;19.004;2022-11-25T05:46:45;44.70;;;21.73;;
39968;SDS011;25648;47.808;19.004;2022-11-25T05:49:11;42.10;;;20.20;;
39968;SDS011;25648;47.808;19.004;2022-11-25T05:51:37;41.65;;;20.70;;
39968;SDS011;25648;47.808;19.004;2022-11-25T05:54:03;43.72;;;20.63;;
39968;SDS011;25648;47.808;19.004;2022-11-25T05:56:29;43.50;;;21.95;;
39968;SDS011;25648;47.808;19.004;2022-11-25T05:58:55;41.88;;;22.60;;
39968;SDS011;25648;47.808;19.004;2022-11-25T06:01:22;41.00;;;21.35;;
39968;SDS011;25648;47.808;19.004;2022-11-25T06:03:48;60.03;;;30.65;;
39968;SDS011;25648;47.808;19.004;2022-11-25T06:06:13;60.58;;;31.10;;
39968;SDS011;25648;47.808;19.004;2022-11-25T06:08:42;50.50;;;27.60;;
39968;SDS011;25648;47.808;19.004;2022-11-25T06:11:10;45.38;;;23.80;;
39968;SDS011;25648;47.808;19.004;2022-11-25T06:13:37;48.28;;;22.73;;
39968;SDS011;25648;47.808;19.004;2022-11-25T06:16:08;41.33;;;20.67;;
39968;SDS011;25648;47.808;19.004;2022-11-25T06:18:41;44.25;;;22.15;;
39968;SDS011;25648;47.808;19.004;2022-11-25T06:21:07;41.88;;;20.98;;
39968;SDS011;25648;47.808;19.004;2022-11-25T06:23:34;40.50;;;20.25;;
39968;SDS011;25648;47.808;19.004;2022-11-25T06:26:05;40.72;;;20.17;;
39968;SDS011;25648;47.808;19.004;2022-11-25T06:28:32;48.97;;;22.20;;
39968;SDS011;25648;47.808;19.004;2022-11-25T06:31:09;39.38;;;20.58;;
39968;SDS011;25648;47.808;19.004;2022-11-25T06:33:36;44.22;;;21.83;;
39968;SDS011;25648;47.808;19.004;2022-11-25T06:36:03;41.45;;;20.67;;
39968;SDS011;25648;47.808;19.004;2022-11-25T06:38:30;40.78;;;21.27;;
39968;SDS011;25648;47.808;19.004;2022-11-25T06:41:03;42.13;;;21.90;;
39968;SDS011;25648;47.808;19.004;2022-11-25T06:43:30;43.00;;;21.80;;
39968;SDS011;25648;47.808;19.004;2022-11-25T06:46:06;41.70;;;20.88;;
39968;SDS011;25648;47.808;19.004;2022-11-25T06:48:34;42.92;;;21.92;;
39968;SDS011;25648;47.808;19.004;2022-11-25T06:51:01;47.30;;;21.95;;
39968;SDS011;25648;47.808;19.004;2022-11-25T06:53:29;41.03;;;21.65;;
39968;SDS011;25648;47.808;19.004;2022-11-25T06:58:28;41.05;;;22.13;;
39968;SDS011;25648;47.808;19.004;2022-11-25T07:03:39;37.83;;;20.75;;
39968;SDS011;25648;47.808;19.004;2022-11-25T07:06:05;41.47;;;20.88;;
39968;SDS011;25648;47.808;19.004;2022-11-25T07:08:31;44.38;;;22.13;;
39968;SDS011;25648;47.808;19.004;2022-11-25T07:11:04;42.60;;;21.40;;
39968;SDS011;25648;47.808;19.004;2022-11-25T07:13:31;39.17;;;21.38;;
39968;SDS011;25648;47.808;19.004;2022-11-25T07:16:00;46.63;;;22.88;;
39968;SDS011;25648;47.808;19.004;2022-11-25T07:18:34;42.05;;;21.70;;
39968;SDS011;25648;47.808;19.004;2022-11-25T07:23:33;45.75;;;22.55;;
39968;SDS011;25648;47.808;19.004;2022-11-25T07:26:22;43.13;;;21.77;;
39968;SDS011;25648;47.808;19.004;2022-11-25T07:28:53;43.85;;;22.23;;
39968;SDS011;25648;47.808;19.004;2022-11-25T07:33:55;42.10;;;20.45;;
39968;SDS011;25648;47.808;19.004;2022-11-25T07:36:26;40.88;;;20.48;;
39968;SDS011;25648;47.808;19.004;2022-11-25T07:38:53;43.70;;;21.70;;
39968;SDS011;25648;47.808;19.004;2022-11-25T07:41:20;39.60;;;21.90;;
39968;SDS011;25648;47.808;19.004;2022-11-25T07:43:48;39.25;;;20.13;;
39968;SDS011;25648;47.808;19.004;2022-11-25T07:46:20;36.88;;;20.63;;
39968;SDS011;25648;47.808;19.004;2022-11-25T07:48:46;37.65;;;21.52;;
39968;SDS011;25648;47.808;19.004;2022-11-25T07:51:27;36.40;;;19.35;;
39968;SDS011;25648;47.808;19.004;2022-11-25T07:53:55;36.60;;;20.23;;
39968;SDS011;25648;47.808;19.004;2022-11-25T07:56:22;38.08;;;21.23;;
39968;SDS011;25648;47.808;19.004;2022-11-25T07:58:48;34.60;;;19.60;;
39968;SDS011;25648;47.808;19.004;2022-11-25T08:01:14;33.22;;;17.83;;
39968;SDS011;25648;47.808;19.004;2022-11-25T08:03:41;30.63;;;18.40;;
39968;SDS011;25648;47.808;19.004;2022-11-25T08:06:09;35.78;;;18.90;;
39968;SDS011;25648;47.808;19.004;2022-11-25T08:08:37;34.42;;;19.70;;
39968;SDS011;25648;47.808;19.004;2022-11-25T08:11:09;34.70;;;19.75;;
39968;SDS011;25648;47.808;19.004;2022-11-25T08:13:37;32.30;;;17.73;;
39968;SDS011;25648;47.808;19.004;2022-11-25T08:16:04;33.40;;;17.77;;
39968;SDS011;25648;47.808;19.004;2022-11-25T08:18:30;30.23;;;17.40;;
39968;SDS011;25648;47.808;19.004;2022-11-25T08:21:00;32.25;;;17.95;;
39968;SDS011;25648;47.808;19.004;2022-11-25T08:23:33;30.75;;;17.17;;
39968;SDS011;25648;47.808;19.004;2022-11-25T08:26:07;33.15;;;18.13;;
39968;SDS011;25648;47.808;19.004;2022-11-25T08:28:35;31.85;;;17.15;;
39968;SDS011;25648;47.808;19.004;2022-11-25T08:31:02;31.40;;;17.08;;
39968;SDS011;25648;47.808;19.004;2022-11-25T08:33:28;29.58;;;17.35;;
39968;SDS011;25648;47.808;19.004;2022-11-25T08:35:54;30.10;;;17.17;;
39968;SDS011;25648;47.808;19.004;2022-11-25T08:38:21;26.23;;;15.27;;
39968;SDS011;25648;47.808;19.004;2022-11-25T08:40:46;31.75;;;16.35;;
39968;SDS011;25648;47.808;19.004;2022-11-25T08:43:12;26.73;;;16.92;;
39968;SDS011;25648;47.808;19.004;2022-11-25T08:45:38;30.10;;;16.52;;
39968;SDS011;25648;47.808;19.004;2022-11-25T08:48:04;27.30;;;16.92;;
39968;SDS011;25648;47.808;19.004;2022-11-25T08:50:31;27.15;;;17.00;;
39968;SDS011;25648;47.808;19.004;2022-11-25T08:52:57;27.38;;;17.00;;
39968;SDS011;25648;47.808;19.004;2022-11-25T08:55:23;26.63;;;16.45;;
39968;SDS011;25648;47.808;19.004;2022-11-25T08:57:51;25.40;;;16.65;;
39968;SDS011;25648;47.808;19.004;2022-11-25T09:00:17;25.67;;;16.30;;
39968;SDS011;25648;47.808;19.004;2022-11-25T09:02:43;23.95;;;16.65;;
39968;SDS011;25648;47.808;19.004;2022-11-25T09:05:13;24.65;;;15.85;;
39968;SDS011;25648;47.808;19.004;2022-11-25T09:07:41;23.30;;;15.60;;
39968;SDS011;25648;47.808;19.004;2022-11-25T09:10:08;22.08;;;15.88;;
39968;SDS011;25648;47.808;19.004;2022-11-25T09:12:38;21.70;;;14.63;;
39968;SDS011;25648;47.808;19.004;2022-11-25T09:15:04;21.83;;;15.20;;
39968;SDS011;25648;47.808;19.004;2022-11-25T09:17:30;19.85;;;14.43;;
39968;SDS011;25648;47.808;19.004;2022-11-25T09:19:58;22.15;;;15.80;;
39968;SDS011;25648;47.808;19.004;2022-11-25T09:22:24;19.60;;;12.93;;
39968;SDS011;25648;47.808;19.004;2022-11-25T09:24:49;20.27;;;14.38;;
39968;SDS011;25648;47.808;19.004;2022-11-25T09:27:18;18.88;;;12.68;;
39968;SDS011;25648;47.808;19.004;2022-11-25T09:29:43;18.33;;;12.10;;
39968;SDS011;25648;47.808;19.004;2022-11-25T09:32:09;18.75;;;12.40;;
39968;SDS011;25648;47.808;19.004;2022-11-25T09:34:34;16.67;;;11.88;;
39968;SDS011;25648;47.808;19.004;2022-11-25T09:37:00;17.20;;;12.13;;
39968;SDS011;25648;47.808;19.004;2022-11-25T09:39:26;18.42;;;11.70;;
39968;SDS011;25648;47.808;19.004;2022-11-25T09:59:10;16.35;;;9.70;;
39968;SDS011;25648;47.808;19.004;2022-11-25T10:01:49;14.50;;;9.90;;
39968;SDS011;25648;47.808;19.004;2022-11-25T10:04:25;12.93;;;9.05;;
39968;SDS011;25648;47.808;19.004;2022-11-25T10:07:02;11.23;;;7.57;;
39968;SDS011;25648;47.808;19.004;2022-11-25T10:09:33;12.20;;;8.40;;
39968;SDS011;25648;47.808;19.004;2022-11-25T10:12:02;11.75;;;8.05;;
39968;SDS011;25648;47.808;19.004;2022-11-25T10:14:58;17.23;;;10.02;;
39968;SDS011;25648;47.808;19.004;2022-11-25T10:20:34;11.90;;;8.15;;
39968;SDS011;25648;47.808;19.004;2022-11-25T10:23:04;11.68;;;7.55;;
39968;SDS011;25648;47.808;19.004;2022-11-25T10:25:36;15.73;;;10.85;;
39968;SDS011;25648;47.808;19.004;2022-11-25T10:28:14;10.38;;;7.43;;
39968;SDS011;25648;47.808;19.004;2022-11-25T10:33:28;11.00;;;7.72;;
39968;SDS011;25648;47.808;19.004;2022-11-25T10:35:58;10.43;;;7.30;;
39968;SDS011;25648;47.808;19.004;2022-11-25T10:38:31;11.48;;;7.03;;
39968;SDS011;25648;47.808;19.004;2022-11-25T10:41:14;10.93;;;7.38;;
39968;SDS011;25648;47.808;19.004;2022-11-25T10:43:45;10.63;;;7.32;;
39968;SDS011;25648;47.808;19.004;2022-11-25T10:49:10;11.45;;;7.28;;
39968;SDS011;25648;47.808;19.004;2022-11-25T10:59:20;9.85;;;6.80;;
39968;SDS011;25648;47.808;19.004;2022-11-25T11:01:50;11.48;;;7.20;;
39968;SDS011;25648;47.808;19.004;2022-11-25T11:04:17;10.23;;;7.30;;
39968;SDS011;25648;47.808;19.004;2022-11-25T11:06:45;11.18;;;7.22;;
39968;SDS011;25648;47.808;19.004;2022-11-25T11:12:23;13.15;;;8.15;;
39968;SDS011;25648;47.808;19.004;2022-11-25T11:14:46;11.38;;;8.10;;
39968;SDS011;25648;47.808;19.004;2022-11-25T11:17:20;13.65;;;9.05;;
39968;SDS011;25648;47.808;19.004;2022-11-25T11:25:21;12.80;;;8.18;;
39968;SDS011;25648;47.808;19.004;2022-11-25T11:27:51;12.80;;;8.50;;
39968;SDS011;25648;47.808;19.004;2022-11-25T11:32:54;12.90;;;8.40;;
39968;SDS011;25648;47.808;19.004;2022-11-25T11:38:33;15.18;;;9.05;;
39968;SDS011;25648;47.808;19.004;2022-11-25T11:43:48;15.80;;;9.57;;
39968;SDS011;25648;47.808;19.004;2022-11-25T11:49:35;15.80;;;10.30;;
39968;SDS011;25648;47.808;19.004;2022-11-25T11:55:18;17.02;;;9.93;;
39968;SDS011;25648;47.808;19.004;2022-11-25T11:58:04;18.17;;;11.02;;
39968;SDS011;25648;47.808;19.004;2022-11-25T12:04:21;16.73;;;10.30;;
39968;SDS011;25648;47.808;19.004;2022-11-25T12:06:57;16.88;;;11.27;;
39968;SDS011;25648;47.808;19.004;2022-11-25T12:09:31;15.32;;;10.30;;
39968;SDS011;25648;47.808;19.004;2022-11-25T12:12:04;17.70;;;10.80;;
39968;SDS011;25648;47.808;19.004;2022-11-25T12:17:15;18.85;;;11.20;;
39968;SDS011;25648;47.808;19.004;2022-11-25T12:22:43;16.30;;;10.25;;
39968;SDS011;25648;47.808;19.004;2022-11-25T12:25:18;17.05;;;11.40;;
39968;SDS011;25648;47.808;19.004;2022-11-25T12:28:23;19.52;;;12.25;;
39968;SDS011;25648;47.808;19.004;2022-11-25T12:30:47;20.75;;;12.70;;
39968;SDS011;25648;47.808;19.004;2022-11-25T12:36:19;19.15;;;12.25;;
39968;SDS011;25648;47.808;19.004;2022-11-25T12:38:59;21.48;;;13.68;;
39968;SDS011;25648;47.808;19.004;2022-11-25T12:41:43;20.30;;;12.15;;
39968;SDS011;25648;47.808;19.004;2022-11-25T12:46:49;17.92;;;12.23;;
39968;SDS011;25648;47.808;19.004;2022-11-25T13:13:17;17.17;;;11.27;;
39968;SDS011;25648;47.808;19.004;2022-11-25T13:15:56;19.75;;;12.05;;
39968;SDS011;25648;47.808;19.004;2022-11-25T13:18:24;17.55;;;11.18;;
39968;SDS011;25648;47.808;19.004;2022-11-25T13:20:53;20.27;;;12.55;;
39968;SDS011;25648;47.808;19.004;2022-11-25T13:23:21;39.72;;;22.10;;
39968;SDS011;25648;47.808;19.004;2022-11-25T13:25:49;21.52;;;13.50;;
39968;SDS011;25648;47.808;19.004;2022-11-25T13:48:58;22.60;;;14.48;;
39968;SDS011;25648;47.808;19.004;2022-11-25T13:51:25;24.00;;;16.10;;
39968;SDS011;25648;47.808;19.004;2022-11-25T13:53:58;26.42;;;15.40;;
39968;SDS011;25648;47.808;19.004;2022-11-25T14:04:05;25.63;;;16.17;;
39968;SDS011;25648;47.808;19.004;2022-11-25T14:06:35;26.13;;;16.23;;
39968;SDS011;25648;47.808;19.004;2022-11-25T14:12:21;30.17;;;19.63;;
39968;SDS011;25648;47.808;19.004;2022-11-25T14:26:00;37.55;;;22.27;;
39968;SDS011;25648;47.808;19.004;2022-11-25T14:31:05;48.88;;;28.75;;
39968;SDS011;25648;47.808;19.004;2022-11-25T14:36:22;54.80;;;35.88;;
39968;SDS011;25648;47.808;19.004;2022-11-25T14:41:25;30.85;;;19.27;;
39968;SDS011;25648;47.808;19.004;2022-11-25T14:43:57;33.00;;;19.05;;
39968;SDS011;25648;47.808;19.004;2022-11-25T14:46:30;42.92;;;29.67;;
39968;SDS011;25648;47.808;19.004;2022-11-25T14:49:00;39.80;;;28.02;;
39968;SDS011;25648;47.808;19.004;2022-11-25T14:51:27;36.33;;;25.55;;
39968;SDS011;25648;47.808;19.004;2022-11-25T14:53:59;34.22;;;20.25;;
39968;SDS011;25648;47.808;19.004;2022-11-25T14:56:27;30.75;;;18.48;;
39968;SDS011;25648;47.808;19.004;2022-11-25T14:58:55;26.80;;;16.27;;
39968;SDS011;25648;47.808;19.004;2022-11-25T15:01:29;24.92;;;15.90;;
39968;SDS011;25648;47.808;19.004;2022-11-25T15:06:35;25.48;;;14.90;;
39968;SDS011;25648;47.808;19.004;2022-11-25T15:11:51;25.45;;;15.73;;
39968;SDS011;25648;47.808;19.004;2022-11-25T15:14:40;27.42;;;17.40;;
39968;SDS011;25648;47.808;19.004;2022-11-25T15:19:50;27.95;;;16.65;;
39968;SDS011;25648;47.808;19.004;2022-11-25T15:22:17;29.08;;;16.77;;
39968;SDS011;25648;47.808;19.004;2022-11-25T15:24:45;28.73;;;18.45;;
39968;SDS011;25648;47.808;19.004;2022-11-25T15:27:13;30.00;;;17.98;;
39968;SDS011;25648;47.808;19.004;2022-11-25T15:29:41;29.75;;;17.38;;
39968;SDS011;25648;47.808;19.004;2022-11-25T15:32:13;29.08;;;17.33;;
39968;SDS011;25648;47.808;19.004;2022-11-25T15:35:02;27.98;;;18.08;;
39968;SDS011;25648;47.808;19.004;2022-11-25T15:37:29;36.05;;;22.38;;
39968;SDS011;25648;47.808;19.004;2022-11-25T15:42:55;47.45;;;24.38;;
39968;SDS011;25648;47.808;19.004;2022-11-25T15:45:29;41.95;;;24.88;;
39968;SDS011;25648;47.808;19.004;2022-11-25T15:48:01;43.20;;;25.75;;
39968;SDS011;25648;47.808;19.004;2022-11-25T15:50:27;44.30;;;26.50;;
39968;SDS011;25648;47.808;19.004;2022-11-25T15:52:55;45.97;;;26.40;;
39968;SDS011;25648;47.808;19.004;2022-11-25T15:55:31;45.92;;;26.35;;
39968;SDS011;25648;47.808;19.004;2022-11-25T15:58:00;51.50;;;27.17;;
39968;SDS011;25648;47.808;19.004;2022-11-25T16:00:39;47.17;;;27.00;;
39968;SDS011;25648;47.808;19.004;2022-11-25T16:03:20;50.90;;;26.75;;
39968;SDS011;25648;47.808;19.004;2022-11-25T16:05:54;48.53;;;28.00;;
39968;SDS011;25648;47.808;19.004;2022-11-25T16:10:56;46.13;;;27.55;;
39968;SDS011;25648;47.808;19.004;2022-11-25T16:13:28;50.83;;;29.30;;
39968;SDS011;25648;47.808;19.004;2022-11-25T16:24:09;43.95;;;24.23;;
39968;SDS011;25648;47.808;19.004;2022-11-25T16:26:52;45.85;;;24.85;;
39968;SDS011;25648;47.808;19.004;2022-11-25T16:32:24;51.33;;;25.67;;
39968;SDS011;25648;47.808;19.004;2022-11-25T16:34:53;47.90;;;26.45;;
39968;SDS011;25648;47.808;19.004;2022-11-25T16:37:20;58.15;;;30.27;;
39968;SDS011;25648;47.808;19.004;2022-11-25T16:39:46;56.33;;;29.05;;
39968;SDS011;25648;47.808;19.004;2022-11-25T16:42:16;60.33;;;33.00;;
39968;SDS011;25648;47.808;19.004;2022-11-25T16:44:49;49.78;;;28.45;;
39968;SDS011;25648;47.808;19.004;2022-11-25T16:47:16;56.00;;;31.10;;
39968;SDS011;25648;47.808;19.004;2022-11-25T16:49:44;67.63;;;38.20;;
39968;SDS011;25648;47.808;19.004;2022-11-25T16:52:10;51.22;;;28.48;;
39968;SDS011;25648;47.808;19.004;2022-11-25T16:54:36;54.45;;;29.42;;
39968;SDS011;25648;47.808;19.004;2022-11-25T16:57:03;53.00;;;28.75;;
39968;SDS011;25648;47.808;19.004;2022-11-25T17:01:58;61.78;;;28.60;;
39968;SDS011;25648;47.808;19.004;2022-11-25T17:04:25;63.67;;;27.08;;
39968;SDS011;25648;47.808;19.004;2022-11-25T17:06:51;61.08;;;28.88;;
39968;SDS011;25648;47.808;19.004;2022-11-25T17:09:17;62.92;;;26.52;;
39968;SDS011;25648;47.808;19.004;2022-11-25T17:11:49;70.68;;;29.67;;
39968;SDS011;25648;47.808;19.004;2022-11-25T17:14:22;87.13;;;31.55;;
39968;SDS011;25648;47.808;19.004;2022-11-25T17:16:58;83.28;;;35.80;;
39968;SDS011;25648;47.808;19.004;2022-11-25T17:19:24;99.63;;;42.03;;
39968;SDS011;25648;47.808;19.004;2022-11-25T17:21:50;87.40;;;30.60;;
39968;SDS011;25648;47.808;19.004;2022-11-25T17:24:20;88.05;;;37.35;;
39968;SDS011;25648;47.808;19.004;2022-11-25T17:26:58;83.43;;;32.55;;
39968;SDS011;25648;47.808;19.004;2022-11-25T17:29:44;84.30;;;31.17;;
39968;SDS011;25648;47.808;19.004;2022-11-25T17:32:11;87.80;;;31.50;;
39968;SDS011;25648;47.808;19.004;2022-11-25T17:34:37;128.05;;;33.38;;
39968;SDS011;25648;47.808;19.004;2022-11-25T17:37:06;81.43;;;30.95;;